createdAt,value
2023-01-12T00:01:14.049Z,3.38
2023-01-12T00:03:44.631Z,2.70
2023-01-12T00:06:12.422Z,2.80
2023-01-12T00:08:42.644Z,2.72
2023-01-12T00:11:13.144Z,2.35
2023-01-12T00:13:40.852Z,3.22
2023-01-12T00:16:37.724Z,2.83
2023-01-12T00:19:16.224Z,3.05
2023-01-12T00:21:59.553Z,2.83
2023-01-12T00:24:33.917Z,3.10
2023-01-12T00:27:05.641Z,3.42
2023-01-12T00:29:33.658Z,2.92
2023-01-12T00:32:01.461Z,2.40
2023-01-12T00:34:29.928Z,2.90
2023-01-12T00:37:00.242Z,2.63
2023-01-12T00:39:27.990Z,3.08
2023-01-12T00:42:14.401Z,3.38
2023-01-12T00:45:00.828Z,2.85
2023-01-12T00:47:28.557Z,2.92
2023-01-12T00:49:58.696Z,3.30
2023-01-12T00:52:31.188Z,3.20
2023-01-12T00:55:00.228Z,2.60
2023-01-12T00:57:28.680Z,3.75
2023-01-12T00:59:58.473Z,3.67
2023-01-12T01:03:07.601Z,2.97
2023-01-12T01:05:59.920Z,3.88
2023-01-12T01:08:27.609Z,3.80
2023-01-12T01:11:06.648Z,3.65
2023-01-12T01:13:54.313Z,3.83
2023-01-12T01:16:48.763Z,3.20
2023-01-12T01:22:08.315Z,2.75
2023-01-12T01:24:39.532Z,3.80
2023-01-12T01:27:15.656Z,3.17
2023-01-12T01:29:51.047Z,3.17
2023-01-12T01:35:19.189Z,3.20
2023-01-12T01:37:47.453Z,3.10
2023-01-12T01:40:18.599Z,3.28
2023-01-12T01:42:46.550Z,2.33
2023-01-12T01:45:18.654Z,2.67
2023-01-12T01:47:53.474Z,3.03
2023-01-12T01:50:42.530Z,2.75
2023-01-12T01:53:18.695Z,2.78
2023-01-12T01:55:53.422Z,3.08
2023-01-12T01:58:28.620Z,2.80
2023-01-12T02:01:03.935Z,2.65
2023-01-12T02:03:37.035Z,3.13
2023-01-12T02:06:06.899Z,2.58
2023-01-12T02:09:34.015Z,2.72
2023-01-12T02:12:21.264Z,2.80
2023-01-12T02:15:10.148Z,2.55
2023-01-12T02:17:47.122Z,2.75
2023-01-12T02:20:36.876Z,2.90
2023-01-12T02:23:16.721Z,2.92
2023-01-12T02:25:50.830Z,3.17
2023-01-12T02:28:33.254Z,3.15
2023-01-12T02:31:29.232Z,4.20
2023-01-12T02:34:13.950Z,4.07
2023-01-12T02:37:09.454Z,3.40
2023-01-12T02:39:50.931Z,3.55
2023-01-12T02:42:42.104Z,3.67
2023-01-12T02:45:18.722Z,4.10
2023-01-12T02:48:12.411Z,3.78
2023-01-12T02:51:03.805Z,3.70
2023-01-12T02:53:50.232Z,3.55
2023-01-12T02:56:23.776Z,4.13
2023-01-12T02:58:59.922Z,3.80
2023-01-12T03:01:29.330Z,4.18
2023-01-12T03:04:03.186Z,4.20
2023-01-12T03:06:54.918Z,3.60
2023-01-12T03:09:46.323Z,3.60
2023-01-12T03:12:46.520Z,3.80
2023-01-12T03:15:24.428Z,4.00
2023-01-12T03:18:03.783Z,3.47
2023-01-12T03:20:36.382Z,2.80
2023-01-12T03:23:12.939Z,3.33
2023-01-12T03:25:44.721Z,2.97
2023-01-12T03:28:19.842Z,2.90
2023-01-12T03:30:58.355Z,3.15
2023-01-12T03:33:27.553Z,3.40
2023-01-12T03:36:45.751Z,3.30
2023-01-12T03:39:22.374Z,3.15
2023-01-12T03:42:09.190Z,2.80
2023-01-12T03:45:06.275Z,2.40
2023-01-12T03:47:36.882Z,2.75
2023-01-12T03:50:12.340Z,2.22
2023-01-12T03:52:51.832Z,2.60
2023-01-12T03:55:24.320Z,2.20
2023-01-12T03:57:53.322Z,1.63
2023-01-12T04:00:22.705Z,1.73
2023-01-12T04:03:08.495Z,2.10
2023-01-12T04:05:42.037Z,1.60
2023-01-12T04:08:17.780Z,2.15
2023-01-12T04:10:46.147Z,1.77
2023-01-12T04:13:21.651Z,2.08
2023-01-12T04:15:49.495Z,1.92
2023-01-12T04:18:20.440Z,1.98
2023-01-12T04:20:49.467Z,1.88
2023-01-12T04:23:19.440Z,2.08
2023-01-12T04:25:49.623Z,3.13
2023-01-12T04:28:18.243Z,2.63
2023-01-12T04:30:45.795Z,3.05
2023-01-12T04:33:16.612Z,3.35
2023-01-12T04:35:47.427Z,3.10
2023-01-12T04:38:16.864Z,3.38
2023-01-12T04:40:44.718Z,3.00
2023-01-12T04:43:13.662Z,2.47
2023-01-12T04:45:44.310Z,1.65
2023-01-12T04:48:13.467Z,1.60
2023-01-12T04:50:42.403Z,1.65
2023-01-12T04:53:16.752Z,1.60
2023-01-12T04:55:46.573Z,2.15
2023-01-12T04:58:16.831Z,1.83
2023-01-12T05:00:44.849Z,1.85
2023-01-12T05:03:30.412Z,1.73
2023-01-12T05:06:23.778Z,1.80
2023-01-12T05:09:15.554Z,1.70
2023-01-12T05:11:44.237Z,1.58
2023-01-12T05:14:12.450Z,1.38
2023-01-12T05:16:43.118Z,1.75
2023-01-12T05:19:10.707Z,1.48
2023-01-12T05:21:38.335Z,1.27
2023-01-12T05:24:08.964Z,1.48
2023-01-12T05:26:46.369Z,1.58
2023-01-12T05:29:15.232Z,1.50
2023-01-12T05:31:46.941Z,1.50
2023-01-12T05:34:14.757Z,1.85
2023-01-12T05:36:42.427Z,2.25
2023-01-12T05:39:10.217Z,2.00
2023-01-12T05:41:58.690Z,2.10
2023-01-12T05:44:26.614Z,1.77
2023-01-12T05:46:57.166Z,2.13
2023-01-12T05:49:25.825Z,2.42
2023-01-12T05:51:55.943Z,2.40
2023-01-12T05:54:24.355Z,2.40
2023-01-12T05:56:51.894Z,1.92
2023-01-12T05:59:39.550Z,2.50
2023-01-12T06:02:21.869Z,2.17
2023-01-12T06:05:21.067Z,2.30
2023-01-12T06:11:34.738Z,2.05
2023-01-12T06:14:53.146Z,2.05
2023-01-12T06:21:41.973Z,1.92
2023-01-12T06:25:21.425Z,1.70
2023-01-12T06:31:06.243Z,2.55
2023-01-12T06:33:37.022Z,2.30
2023-01-12T06:43:12.414Z,2.47
2023-01-12T06:45:55.625Z,2.28
2023-01-12T06:48:38.762Z,2.78
2023-01-12T06:51:07.768Z,2.90
2023-01-12T06:53:43.795Z,3.10
2023-01-12T06:56:18.375Z,2.95
2023-01-12T06:59:05.177Z,3.22
2023-01-12T07:01:33.492Z,3.03
2023-01-12T07:04:06.316Z,2.35
2023-01-12T07:07:10.807Z,2.97
2023-01-12T07:09:46.773Z,3.35
2023-01-12T07:12:14.395Z,3.67
2023-01-12T07:14:52.433Z,4.30
2023-01-12T07:17:20.775Z,6.65
2023-01-12T07:19:48.709Z,3.80
2023-01-12T07:22:19.618Z,4.07
2023-01-12T07:24:47.579Z,4.70
2023-01-12T07:27:43.411Z,5.28
2023-01-12T07:34:12.927Z,4.05
2023-01-12T07:37:47.990Z,3.92
2023-01-12T07:40:27.585Z,4.18
2023-01-12T07:43:12.582Z,3.60
2023-01-12T08:02:33.035Z,5.75
2023-01-12T08:13:06.949Z,5.22
2023-01-12T08:16:16.025Z,5.70
2023-01-12T08:19:32.119Z,4.65
2023-01-12T08:25:33.267Z,4.13
2023-01-12T08:28:21.516Z,3.72
2023-01-12T08:42:11.356Z,6.38
2023-01-12T08:45:20.126Z,8.35
2023-01-12T08:48:58.728Z,7.32
2023-01-12T08:52:06.508Z,7.10
2023-01-12T08:57:52.832Z,8.45
2023-01-12T09:00:55.534Z,5.45
2023-01-12T09:03:31.893Z,4.95
2023-01-12T09:16:11.257Z,7.15
2023-01-12T09:18:51.490Z,7.63
2023-01-12T09:25:05.461Z,6.53
2023-01-12T09:28:10.954Z,7.03
2023-01-12T09:44:01.671Z,6.22
2023-01-12T09:47:23.804Z,6.63
2023-01-12T09:53:03.480Z,6.32
2023-01-12T09:56:30.260Z,5.97
2023-01-12T13:46:37.242Z,6.00
2023-01-12T15:42:13.914Z,4.75
2023-01-12T15:44:50.628Z,5.95
2023-01-12T15:47:22.491Z,5.03
2023-01-12T15:49:58.063Z,5.05
2023-01-12T15:52:39.905Z,7.57
2023-01-12T15:55:26.875Z,7.70
2023-01-12T15:57:54.400Z,11.57
2023-01-12T16:00:24.032Z,10.32
2023-01-12T16:03:24.018Z,9.13
2023-01-12T16:06:09.064Z,9.98
2023-01-12T16:25:35.738Z,7.20
2023-01-12T16:28:11.477Z,7.72
2023-01-12T16:30:45.168Z,7.47
2023-01-12T16:35:57.973Z,6.75
2023-01-12T16:38:28.237Z,6.30
2023-01-12T16:45:15.251Z,7.03
2023-01-12T16:54:55.862Z,7.35
2023-01-12T16:57:28.238Z,6.38
2023-01-12T17:04:13.276Z,7.88
2023-01-12T17:06:55.734Z,7.80
2023-01-12T19:26:51.937Z,9.07
2023-01-12T19:33:39.283Z,7.70
2023-01-12T19:36:43.996Z,7.10
2023-01-12T20:27:28.508Z,8.70
2023-01-12T23:39:22.135Z,9.07
